sensor_id;sensor_type;location;lat;lon;timestamp;pressure;altitude;pressure_sealevel;temperature;humidity
52839;BME280;39219;53.678;9.856;2022-12-08T00:02:22;100381.22;;;0.49;100.00
52839;BME280;39219;53.678;9.856;2022-12-08T00:04:48;100371.63;;;0.49;100.00
52839;BME280;39219;53.678;9.856;2022-12-08T00:07:33;100375.13;;;0.51;100.00
52839;BME280;39219;53.678;9.856;2022-12-08T00:10:17;100370.81;;;0.55;100.00
52839;BME280;39219;53.678;9.856;2022-12-08T00:12:43;100371.75;;;0.60;100.00
52839;BME280;39219;53.678;9.856;2022-12-08T00:15:11;100370.03;;;0.62;100.00
52839;BME280;39219;53.678;9.856;2022-12-08T00:17:37;100365.75;;;0.69;100.00
52839;BME280;39219;53.678;9.856;2022-12-08T00:20:05;100370.16;;;0.73;100.00
52839;BME280;39219;53.678;9.856;2022-12-08T00:22:32;100363.19;;;0.75;100.00
52839;BME280;39219;53.678;9.856;2022-12-08T00:24:58;100362.31;;;0.74;100.00
52839;BME280;39219;53.678;9.856;2022-12-08T00:27:24;100364.97;;;0.78;100.00
52839;BME280;39219;53.678;9.856;2022-12-08T00:29:51;100360.59;;;0.77;100.00
52839;BME280;39219;53.678;9.856;2022-12-08T00:32:19;100364.16;;;0.85;100.00
52839;BME280;39219;53.678;9.856;2022-12-08T00:34:45;100360.72;;;0.87;100.00
52839;BME280;39219;53.678;9.856;2022-12-08T00:37:11;100356.34;;;0.86;100.00
52839;BME280;39219;53.678;9.856;2022-12-08T00:39:38;100352.94;;;0.94;100.00
52839;BME280;39219;53.678;9.856;2022-12-08T00:42:04;100348.59;;;0.96;100.00
52839;BME280;39219;53.678;9.856;2022-12-08T00:44:37;100344.25;;;0.98;100.00
52839;BME280;39219;53.678;9.856;2022-12-08T00:47:04;100343.41;;;1.00;100.00
52839;BME280;39219;53.678;9.856;2022-12-08T00:49:32;100346.03;;;1.05;100.00
52839;BME280;39219;53.678;9.856;2022-12-08T00:51:58;100341.69;;;1.07;100.00
52839;BME280;39219;53.678;9.856;2022-12-08T00:54:25;100340.00;;;1.11;100.00
52839;BME280;39219;53.678;9.856;2022-12-08T00:56:51;100329.53;;;1.08;100.00
52839;BME280;39219;53.678;9.856;2022-12-08T00:59:18;100336.53;;;1.13;100.00
52839;BME280;39219;53.678;9.856;2022-12-08T01:01:45;100328.69;;;1.13;100.00
52839;BME280;39219;53.678;9.856;2022-12-08T01:04:14;100332.16;;;1.12;100.00
52839;BME280;39219;53.678;9.856;2022-12-08T01:06:42;100330.41;;;1.11;100.00
52839;BME280;39219;53.678;9.856;2022-12-08T01:09:10;100329.66;;;1.23;100.00
52839;BME280;39219;53.678;9.856;2022-12-08T01:11:37;100322.63;;;1.21;100.00
52839;BME280;39219;53.678;9.856;2022-12-08T01:14:04;100326.16;;;1.21;100.00
52839;BME280;39219;53.678;9.856;2022-12-08T01:16:32;100321.00;;;1.30;100.00
52839;BME280;39219;53.678;9.856;2022-12-08T01:18:59;100324.47;;;1.29;100.00
52839;BME280;39219;53.678;9.856;2022-12-08T01:21:26;100317.50;;;1.33;100.00
52839;BME280;39219;53.678;9.856;2022-12-08T01:23:54;100321.91;;;1.39;100.00
52839;BME280;39219;53.678;9.856;2022-12-08T01:26:22;100317.59;;;1.42;100.00
52839;BME280;39219;53.678;9.856;2022-12-08T01:28:48;100309.72;;;1.39;100.00
52839;BME280;39219;53.678;9.856;2022-12-08T01:31:16;100311.47;;;1.40;100.00
52839;BME280;39219;53.678;9.856;2022-12-08T01:33:43;100304.47;;;1.41;100.00
52839;BME280;39219;53.678;9.856;2022-12-08T01:36:18;100295.75;;;1.42;100.00
52839;BME280;39219;53.678;9.856;2022-12-08T01:38:45;100295.78;;;1.43;100.00
52839;BME280;39219;53.678;9.856;2022-12-08T01:41:14;100298.38;;;1.42;100.00
52839;BME280;39219;53.678;9.856;2022-12-08T01:43:49;100295.81;;;1.46;100.00
52839;BME280;39219;53.678;9.856;2022-12-08T01:46:16;100294.94;;;1.47;100.00
52839;BME280;39219;53.678;9.856;2022-12-08T01:48:42;100295.84;;;1.54;100.00
52839;BME280;39219;53.678;9.856;2022-12-08T01:51:09;100295.81;;;1.51;100.00
52839;BME280;39219;53.678;9.856;2022-12-08T01:53:35;100289.69;;;1.49;100.00
52839;BME280;39219;53.678;9.856;2022-12-08T01:56:05;100287.91;;;1.40;100.00
52839;BME280;39219;53.678;9.856;2022-12-08T01:58:36;100298.34;;;1.32;100.00
52839;BME280;39219;53.678;9.856;2022-12-08T02:01:05;100292.22;;;1.33;100.00
52839;BME280;39219;53.678;9.856;2022-12-08T02:03:35;100297.47;;;1.35;100.00
52839;BME280;39219;53.678;9.856;2022-12-08T02:06:03;100294.84;;;1.30;100.00
52839;BME280;39219;53.678;9.856;2022-12-08T02:08:30;100298.28;;;1.26;100.00
52839;BME280;39219;53.678;9.856;2022-12-08T02:10:57;100290.38;;;1.17;100.00
52839;BME280;39219;53.678;9.856;2022-12-08T02:13:24;100290.28;;;1.09;100.00
52839;BME280;39219;53.678;9.856;2022-12-08T02:15:58;100285.09;;;1.15;100.00
52839;BME280;39219;53.678;9.856;2022-12-08T02:18:41;100286.88;;;1.18;100.00
52839;BME280;39219;53.678;9.856;2022-12-08T02:21:13;100282.53;;;1.22;100.00
52839;BME280;39219;53.678;9.856;2022-12-08T02:23:50;100274.75;;;1.29;100.00
52839;BME280;39219;53.678;9.856;2022-12-08T02:29:56;100271.25;;;1.26;100.00
52839;BME280;39219;53.678;9.856;2022-12-08T02:32:41;100266.91;;;1.26;100.00
52839;BME280;39219;53.678;9.856;2022-12-08T02:35:17;100262.50;;;1.22;100.00
52839;BME280;39219;53.678;9.856;2022-12-08T02:37:52;100267.75;;;1.27;100.00
52839;BME280;39219;53.678;9.856;2022-12-08T02:40:27;100269.56;;;1.32;100.00
52839;BME280;39219;53.678;9.856;2022-12-08T02:42:56;100253.81;;;1.28;100.00
52839;BME280;39219;53.678;9.856;2022-12-08T02:45:26;100254.66;;;1.22;100.00
52839;BME280;39219;53.678;9.856;2022-12-08T02:47:53;100256.44;;;1.29;100.00
52839;BME280;39219;53.678;9.856;2022-12-08T02:50:22;100259.09;;;1.32;100.00
52839;BME280;39219;53.678;9.856;2022-12-08T02:52:48;100253.84;;;1.29;100.00
52839;BME280;39219;53.678;9.856;2022-12-08T02:55:22;100253.84;;;1.32;100.00
52839;BME280;39219;53.678;9.856;2022-12-08T02:58:15;100247.75;;;1.30;100.00
52839;BME280;39219;53.678;9.856;2022-12-08T03:00:57;100251.25;;;1.39;100.00
52839;BME280;39219;53.678;9.856;2022-12-08T03:03:36;100248.63;;;1.39;100.00
52839;BME280;39219;53.678;9.856;2022-12-08T03:06:13;100249.56;;;1.45;100.00
52839;BME280;39219;53.678;9.856;2022-12-08T03:08:50;100238.25;;;1.54;100.00
52839;BME280;39219;53.678;9.856;2022-12-08T03:11:24;100240.09;;;1.68;100.00
52839;BME280;39219;53.678;9.856;2022-12-08T03:13:56;100244.47;;;1.72;100.00
52839;BME280;39219;53.678;9.856;2022-12-08T03:16:26;100233.09;;;1.71;100.00
52839;BME280;39219;53.678;9.856;2022-12-08T03:18:55;100229.63;;;1.74;100.00
52839;BME280;39219;53.678;9.856;2022-12-08T03:21:28;100223.50;;;1.69;100.00
52839;BME280;39219;53.678;9.856;2022-12-08T03:23:59;100225.25;;;1.67;100.00
52839;BME280;39219;53.678;9.856;2022-12-08T03:26:29;100217.44;;;1.76;100.00
52839;BME280;39219;53.678;9.856;2022-12-08T03:28:59;100210.41;;;1.70;100.00
52839;BME280;39219;53.678;9.856;2022-12-08T03:31:31;100210.44;;;1.76;100.00
52839;BME280;39219;53.678;9.856;2022-12-08T03:34:00;100214.81;;;1.76;100.00
52839;BME280;39219;53.678;9.856;2022-12-08T03:36:29;100220.97;;;1.87;100.00
52839;BME280;39219;53.678;9.856;2022-12-08T03:38:55;100220.97;;;1.92;100.00
52839;BME280;39219;53.678;9.856;2022-12-08T03:41:22;100218.38;;;2.00;100.00
52839;BME280;39219;53.678;9.856;2022-12-08T03:43:50;100219.25;;;2.00;100.00
52839;BME280;39219;53.678;9.856;2022-12-08T03:46:18;100218.38;;;1.98;100.00
52839;BME280;39219;53.678;9.856;2022-12-08T03:48:44;100217.53;;;1.98;100.00
52839;BME280;39219;53.678;9.856;2022-12-08T03:51:11;100207.91;;;1.97;100.00
52839;BME280;39219;53.678;9.856;2022-12-08T03:53:39;100221.88;;;2.02;100.00
52839;BME280;39219;53.678;9.856;2022-12-08T03:56:13;100216.63;;;2.02;100.00
52839;BME280;39219;53.678;9.856;2022-12-08T03:58:41;100215.78;;;2.01;100.00
52839;BME280;39219;53.678;9.856;2022-12-08T04:01:08;100207.91;;;2.03;100.00
52839;BME280;39219;53.678;9.856;2022-12-08T04:03:34;100206.19;;;2.03;100.00
52839;BME280;39219;53.678;9.856;2022-12-08T04:06:01;100203.53;;;2.00;100.00
52839;BME280;39219;53.678;9.856;2022-12-08T04:08:27;100201.75;;;1.90;100.00
52839;BME280;39219;53.678;9.856;2022-12-08T04:10:55;100201.78;;;1.99;100.00
52839;BME280;39219;53.678;9.856;2022-12-08T04:13:21;100193.06;;;1.97;100.00
52839;BME280;39219;53.678;9.856;2022-12-08T04:15:48;100187.84;;;1.96;100.00
52839;BME280;39219;53.678;9.856;2022-12-08T04:18:15;100187.78;;;1.82;100.00
52839;BME280;39219;53.678;9.856;2022-12-08T04:20:42;100181.66;;;1.78;100.00
52839;BME280;39219;53.678;9.856;2022-12-08T04:23:09;100181.63;;;1.72;100.00
52839;BME280;39219;53.678;9.856;2022-12-08T04:25:36;100179.91;;;1.82;100.00
52839;BME280;39219;53.678;9.856;2022-12-08T04:28:04;100172.94;;;1.87;100.00
52839;BME280;39219;53.678;9.856;2022-12-08T04:30:31;100180.81;;;1.85;100.00
52839;BME280;39219;53.678;9.856;2022-12-08T04:32:58;100179.06;;;1.84;100.00
52839;BME280;39219;53.678;9.856;2022-12-08T04:35:25;100184.31;;;1.89;100.00
52839;BME280;39219;53.678;9.856;2022-12-08T04:37:51;100177.34;;;1.92;100.00
52839;BME280;39219;53.678;9.856;2022-12-08T04:40:18;100179.09;;;1.95;100.00
52839;BME280;39219;53.678;9.856;2022-12-08T04:42:45;100173.00;;;1.99;100.00
52839;BME280;39219;53.678;9.856;2022-12-08T04:45:12;100167.75;;;1.96;100.00
52839;BME280;39219;53.678;9.856;2022-12-08T04:47:39;100163.34;;;1.89;100.00
52839;BME280;39219;53.678;9.856;2022-12-08T04:50:06;100157.19;;;1.65;100.00
52839;BME280;39219;53.678;9.856;2022-12-08T04:52:33;100150.19;;;1.62;100.00
52839;BME280;39219;53.678;9.856;2022-12-08T04:55:00;100153.66;;;1.58;100.00
52839;BME280;39219;53.678;9.856;2022-12-08T04:57:26;100149.28;;;1.57;100.00
52839;BME280;39219;53.678;9.856;2022-12-08T04:59:53;100143.19;;;1.55;100.00
52839;BME280;39219;53.678;9.856;2022-12-08T05:02:21;100134.41;;;1.44;100.00
52839;BME280;39219;53.678;9.856;2022-12-08T05:04:47;100146.66;;;1.46;100.00
52839;BME280;39219;53.678;9.856;2022-12-08T05:07:14;100136.13;;;1.37;100.00
52839;BME280;39219;53.678;9.856;2022-12-08T05:09:40;100136.16;;;1.40;100.00
52839;BME280;39219;53.678;9.856;2022-12-08T05:12:07;100143.97;;;1.39;100.00
52839;BME280;39219;53.678;9.856;2022-12-08T05:14:33;100152.75;;;1.50;100.00
52839;BME280;39219;53.678;9.856;2022-12-08T05:17:00;100169.38;;;1.66;100.00
52839;BME280;39219;53.678;9.856;2022-12-08T05:19:28;100183.38;;;1.73;100.00
52839;BME280;39219;53.678;9.856;2022-12-08T05:21:54;100175.56;;;1.84;100.00
52839;BME280;39219;53.678;9.856;2022-12-08T05:24:20;100172.97;;;1.85;100.00
52839;BME280;39219;53.678;9.856;2022-12-08T05:26:47;100178.22;;;1.96;100.00
52839;BME280;39219;53.678;9.856;2022-12-08T05:29:13;100176.50;;;1.97;100.00
52839;BME280;39219;53.678;9.856;2022-12-08T05:31:40;100173.00;;;2.02;100.00
52839;BME280;39219;53.678;9.856;2022-12-08T05:34:06;100179.97;;;2.02;100.00
52839;BME280;39219;53.678;9.856;2022-12-08T05:36:34;100182.59;;;1.99;100.00
52839;BME280;39219;53.678;9.856;2022-12-08T05:39:00;100183.44;;;1.93;100.00
52839;BME280;39219;53.678;9.856;2022-12-08T05:41:27;100185.22;;;1.99;100.00
52839;BME280;39219;53.678;9.856;2022-12-08T05:43:53;100175.59;;;1.96;100.00
52839;BME280;39219;53.678;9.856;2022-12-08T05:46:20;100177.34;;;1.94;100.00
52839;BME280;39219;53.678;9.856;2022-12-08T05:48:47;100179.97;;;1.89;100.00
52839;BME280;39219;53.678;9.856;2022-12-08T05:51:16;100186.03;;;1.81;100.00
52839;BME280;39219;53.678;9.856;2022-12-08T05:53:45;100190.41;;;1.85;100.00
52839;BME280;39219;53.678;9.856;2022-12-08T05:56:12;100186.03;;;1.82;100.00
52839;BME280;39219;53.678;9.856;2022-12-08T05:58:38;100190.41;;;1.86;100.00
52839;BME280;39219;53.678;9.856;2022-12-08T06:01:05;100188.66;;;1.82;100.00
52839;BME280;39219;53.678;9.856;2022-12-08T06:03:31;100188.66;;;1.79;100.00
52839;BME280;39219;53.678;9.856;2022-12-08T06:05:58;100185.13;;;1.68;100.00
52839;BME280;39219;53.678;9.856;2022-12-08T06:08:25;100186.88;;;1.80;100.00
52839;BME280;39219;53.678;9.856;2022-12-08T06:10:52;100192.16;;;1.84;100.00
52839;BME280;39219;53.678;9.856;2022-12-08T06:13:19;100191.28;;;1.84;100.00
52839;BME280;39219;53.678;9.856;2022-12-08T06:15:45;100191.28;;;1.87;100.00
52839;BME280;39219;53.678;9.856;2022-12-08T06:18:12;100194.81;;;1.90;100.00
52839;BME280;39219;53.678;9.856;2022-12-08T06:20:38;100191.31;;;1.95;100.00
52839;BME280;39219;53.678;9.856;2022-12-08T06:23:05;100193.06;;;1.96;100.00
52839;BME280;39219;53.678;9.856;2022-12-08T06:25:31;100193.94;;;1.95;100.00
52839;BME280;39219;53.678;9.856;2022-12-08T06:27:59;100201.78;;;1.91;100.00
52839;BME280;39219;53.678;9.856;2022-12-08T06:30:25;100190.44;;;1.89;100.00
52839;BME280;39219;53.678;9.856;2022-12-08T06:32:52;100194.81;;;1.94;100.00
52839;BME280;39219;53.678;9.856;2022-12-08T06:35:19;100199.19;;;1.98;100.00
52839;BME280;39219;53.678;9.856;2022-12-08T06:37:45;100194.81;;;2.01;100.00
52839;BME280;39219;53.678;9.856;2022-12-08T06:40:12;100202.66;;;2.06;100.00
52839;BME280;39219;53.678;9.856;2022-12-08T06:42:39;100196.56;;;2.07;100.00
52839;BME280;39219;53.678;9.856;2022-12-08T06:45:11;100197.44;;;2.12;100.00
52839;BME280;39219;53.678;9.856;2022-12-08T06:47:37;100200.94;;;1.99;100.00
52839;BME280;39219;53.678;9.856;2022-12-08T06:50:06;100205.28;;;1.94;100.00
52839;BME280;39219;53.678;9.856;2022-12-08T06:52:32;100189.56;;;1.95;100.00
52839;BME280;39219;53.678;9.856;2022-12-08T06:54:59;100197.41;;;1.89;100.00
52839;BME280;39219;53.678;9.856;2022-12-08T06:57:25;100200.00;;;1.78;100.00
52839;BME280;39219;53.678;9.856;2022-12-08T06:59:52;100192.13;;;1.83;100.00
52839;BME280;39219;53.678;9.856;2022-12-08T07:02:19;100204.38;;;1.82;100.00
52839;BME280;39219;53.678;9.856;2022-12-08T07:04:46;100208.72;;;1.85;100.00
52839;BME280;39219;53.678;9.856;2022-12-08T07:07:12;100202.59;;;1.80;100.00
52839;BME280;39219;53.678;9.856;2022-12-08T07:09:39;100203.47;;;1.77;100.00
52839;BME280;39219;53.678;9.856;2022-12-08T07:12:06;100193.88;;;1.76;100.00
52839;BME280;39219;53.678;9.856;2022-12-08T07:14:32;100193.81;;;1.63;100.00
52839;BME280;39219;53.678;9.856;2022-12-08T07:16:59;100201.69;;;1.70;100.00
52839;BME280;39219;53.678;9.856;2022-12-08T07:19:27;100201.66;;;1.63;100.00
52839;BME280;39219;53.678;9.856;2022-12-08T07:21:54;100202.53;;;1.62;100.00
52839;BME280;39219;53.678;9.856;2022-12-08T07:24:20;100198.19;;;1.63;100.00
52839;BME280;39219;53.678;9.856;2022-12-08T07:26:47;100207.78;;;1.61;100.00
52839;BME280;39219;53.678;9.856;2022-12-08T07:29:13;100207.78;;;1.66;100.00
52839;BME280;39219;53.678;9.856;2022-12-08T07:31:40;100203.44;;;1.68;100.00
52839;BME280;39219;53.678;9.856;2022-12-08T07:34:06;100209.53;;;1.71;100.00
52839;BME280;39219;53.678;9.856;2022-12-08T07:36:34;100206.91;;;1.71;100.00
52839;BME280;39219;53.678;9.856;2022-12-08T07:39:00;100206.03;;;1.69;100.00
52839;BME280;39219;53.678;9.856;2022-12-08T07:41:27;100202.56;;;1.70;100.00
52839;BME280;39219;53.678;9.856;2022-12-08T07:43:54;100201.66;;;1.68;100.00
52839;BME280;39219;53.678;9.856;2022-12-08T07:46:23;100200.81;;;1.68;100.00
52839;BME280;39219;53.678;9.856;2022-12-08T07:48:50;100203.44;;;1.71;100.00
52839;BME280;39219;53.678;9.856;2022-12-08T07:51:17;100204.31;;;1.70;100.00
52839;BME280;39219;53.678;9.856;2022-12-08T07:53:49;100212.19;;;1.73;100.00
52839;BME280;39219;53.678;9.856;2022-12-08T07:56:16;100205.22;;;1.78;100.00
52839;BME280;39219;53.678;9.856;2022-12-08T07:58:42;100213.94;;;1.82;100.00
52839;BME280;39219;53.678;9.856;2022-12-08T08:01:21;100218.34;;;1.86;100.00
52839;BME280;39219;53.678;9.856;2022-12-08T08:03:48;100220.97;;;1.95;100.00
52839;BME280;39219;53.678;9.856;2022-12-08T08:06:15;100226.22;;;1.98;100.00
52839;BME280;39219;53.678;9.856;2022-12-08T08:08:42;100224.50;;;2.03;100.00
52839;BME280;39219;53.678;9.856;2022-12-08T08:11:09;100228.84;;;2.00;100.00
52839;BME280;39219;53.678;9.856;2022-12-08T08:13:36;100227.97;;;2.01;100.00
52839;BME280;39219;53.678;9.856;2022-12-08T08:16:04;100218.38;;;2.03;100.00
52839;BME280;39219;53.678;9.856;2022-12-08T08:18:31;100225.38;;;2.04;100.00
52839;BME280;39219;53.678;9.856;2022-12-08T08:20:58;100228.03;;;2.09;100.00
52839;BME280;39219;53.678;9.856;2022-12-08T08:23:24;100227.13;;;2.11;100.00
52839;BME280;39219;53.678;9.856;2022-12-08T08:25:51;100222.78;;;2.16;100.00
52839;BME280;39219;53.678;9.856;2022-12-08T08:28:19;100227.16;;;2.24;100.00
52839;BME280;39219;53.678;9.856;2022-12-08T08:30:45;100227.19;;;2.27;100.00
52839;BME280;39219;53.678;9.856;2022-12-08T08:33:12;100228.94;;;2.26;100.00
52839;BME280;39219;53.678;9.856;2022-12-08T08:35:39;100239.44;;;2.26;100.00
52839;BME280;39219;53.678;9.856;2022-12-08T08:38:06;100239.41;;;2.20;100.00
52839;BME280;39219;53.678;9.856;2022-12-08T08:40:33;100235.00;;;2.17;100.00
52839;BME280;39219;53.678;9.856;2022-12-08T08:42:59;100237.66;;;2.20;100.00
52839;BME280;39219;53.678;9.856;2022-12-08T08:45:27;100241.13;;;2.15;100.00
52839;BME280;39219;53.678;9.856;2022-12-08T08:47:53;100237.59;;;2.08;100.00
52839;BME280;39219;53.678;9.856;2022-12-08T08:50:20;100242.81;;;1.96;100.00
52839;BME280;39219;53.678;9.856;2022-12-08T08:52:46;100234.94;;;1.91;100.00
52839;BME280;39219;53.678;9.856;2022-12-08T08:55:13;100240.13;;;1.82;100.00
52839;BME280;39219;53.678;9.856;2022-12-08T08:57:39;100240.13;;;1.78;100.00
52839;BME280;39219;53.678;9.856;2022-12-08T09:00:07;100240.09;;;1.75;100.00
52839;BME280;39219;53.678;9.856;2022-12-08T09:02:35;100245.34;;;1.74;100.00
52839;BME280;39219;53.678;9.856;2022-12-08T09:05:03;100242.69;;;1.69;100.00
52839;BME280;39219;53.678;9.856;2022-12-08T09:07:30;100239.19;;;1.66;100.00
52839;BME280;39219;53.678;9.856;2022-12-08T09:09:56;100249.66;;;1.62;100.00
52839;BME280;39219;53.678;9.856;2022-12-08T09:12:23;100247.88;;;1.58;100.00
52839;BME280;39219;53.678;9.856;2022-12-08T09:14:49;100246.13;;;1.53;100.00
52839;BME280;39219;53.678;9.856;2022-12-08T09:17:16;100251.34;;;1.50;100.00
52839;BME280;39219;53.678;9.856;2022-12-08T09:19:43;100252.19;;;1.48;100.00
52839;BME280;39219;53.678;9.856;2022-12-08T09:22:10;100243.53;;;1.59;100.00
52839;BME280;39219;53.678;9.856;2022-12-08T09:24:36;100244.47;;;1.72;100.00
52839;BME280;39219;53.678;9.856;2022-12-08T09:27:03;100247.13;;;1.86;100.00
52839;BME280;39219;53.678;9.856;2022-12-08T09:29:29;100257.66;;;1.95;100.00
52839;BME280;39219;53.678;9.856;2022-12-08T09:31:56;100257.63;;;1.92;100.00
52839;BME280;39219;53.678;9.856;2022-12-08T09:34:22;100264.69;;;2.10;100.00
52839;BME280;39219;53.678;9.856;2022-12-08T09:36:50;100269.13;;;2.25;100.00
52839;BME280;39219;53.678;9.856;2022-12-08T09:39:16;100267.38;;;2.38;100.00
52839;BME280;39219;53.678;9.856;2022-12-08T09:41:47;100261.31;;;2.55;100.00
52839;BME280;39219;53.678;9.856;2022-12-08T09:44:41;100260.44;;;2.63;100.00
52839;BME280;39219;53.678;9.856;2022-12-08T09:47:15;100263.94;;;2.58;100.00
52839;BME280;39219;53.678;9.856;2022-12-08T09:49:47;100272.66;;;2.66;100.00
52839;BME280;39219;53.678;9.856;2022-12-08T09:52:21;100272.69;;;2.64;100.00
52839;BME280;39219;53.678;9.856;2022-12-08T09:54:48;100277.88;;;2.49;100.00
52839;BME280;39219;53.678;9.856;2022-12-08T09:57:18;100278.72;;;2.39;100.00
52839;BME280;39219;53.678;9.856;2022-12-08T09:59:50;100282.22;;;2.25;100.00
52839;BME280;39219;53.678;9.856;2022-12-08T10:02:20;100282.19;;;2.19;100.00
52839;BME280;39219;53.678;9.856;2022-12-08T10:04:47;100283.94;;;2.17;100.00
52839;BME280;39219;53.678;9.856;2022-12-08T10:07:16;100285.69;;;2.18;100.00
52839;BME280;39219;53.678;9.856;2022-12-08T10:09:49;100276.09;;;2.28;100.00
52839;BME280;39219;53.678;9.856;2022-12-08T10:12:23;100288.34;;;2.30;100.00
52839;BME280;39219;53.678;9.856;2022-12-08T10:14:58;100281.34;;;2.34;100.00
52839;BME280;39219;53.678;9.856;2022-12-08T10:17:26;100275.25;;;2.40;100.00
52839;BME280;39219;53.678;9.856;2022-12-08T10:19:57;100280.53;;;2.47;100.00
52839;BME280;39219;53.678;9.856;2022-12-08T10:22:27;100281.44;;;2.62;100.00
52839;BME280;39219;53.678;9.856;2022-12-08T10:25:00;100278.81;;;2.90;100.00
52839;BME280;39219;53.678;9.856;2022-12-08T10:27:32;100270.94;;;3.16;100.00
52839;BME280;39219;53.678;9.856;2022-12-08T10:30:00;100274.41;;;3.41;100.00
52839;BME280;39219;53.678;9.856;2022-12-08T10:32:33;100279.59;;;3.68;100.00
52839;BME280;39219;53.678;9.856;2022-12-08T10:35:03;100281.31;;;3.86;100.00
52839;BME280;39219;53.678;9.856;2022-12-08T10:37:30;100278.66;;;3.91;100.00
52839;BME280;39219;53.678;9.856;2022-12-08T10:40:05;100281.31;;;3.75;100.00
52839;BME280;39219;53.678;9.856;2022-12-08T10:42:37;100296.19;;;3.90;100.00
52839;BME280;39219;53.678;9.856;2022-12-08T10:45:19;100282.97;;;3.99;100.00
52839;BME280;39219;53.678;9.856;2022-12-08T10:47:55;100288.34;;;3.81;100.00
52839;BME280;39219;53.678;9.856;2022-12-08T10:50:28;100289.22;;;3.69;100.00
52839;BME280;39219;53.678;9.856;2022-12-08T10:52:56;100281.41;;;3.43;100.00
52839;BME280;39219;53.678;9.856;2022-12-08T10:55:26;100287.53;;;3.32;100.00
52839;BME280;39219;53.678;9.856;2022-12-08T10:57:53;100289.31;;;3.19;100.00
52839;BME280;39219;53.678;9.856;2022-12-08T11:00:22;100285.81;;;3.16;100.00
52839;BME280;39219;53.678;9.856;2022-12-08T11:02:52;100282.31;;;3.18;100.00
52839;BME280;39219;53.678;9.856;2022-12-08T11:05:20;100281.41;;;3.36;100.00
52839;BME280;39219;53.678;9.856;2022-12-08T11:07:48;100284.84;;;3.69;100.00
52839;BME280;39219;53.678;9.856;2022-12-08T11:10:18;100282.09;;;4.07;100.00
52839;BME280;39219;53.678;9.856;2022-12-08T11:12:48;100289.91;;;4.19;100.00
52839;BME280;39219;53.678;9.856;2022-12-08T11:15:15;100287.19;;;4.44;100.00
52839;BME280;39219;53.678;9.856;2022-12-08T11:17:43;100290.69;;;4.38;100.00
52839;BME280;39219;53.678;9.856;2022-12-08T11:20:21;100292.44;;;4.42;100.00
52839;BME280;39219;53.678;9.856;2022-12-08T11:22:51;100291.66;;;4.20;100.00
52839;BME280;39219;53.678;9.856;2022-12-08T11:25:20;100292.66;;;3.96;100.00
52839;BME280;39219;53.678;9.856;2022-12-08T11:27:51;100298.88;;;3.59;100.00
52839;BME280;39219;53.678;9.856;2022-12-08T11:30:20;100284.94;;;3.17;100.00
52839;BME280;39219;53.678;9.856;2022-12-08T11:32:48;100291.91;;;2.71;100.00
52839;BME280;39219;53.678;9.856;2022-12-08T11:35:22;100290.13;;;2.56;100.00
52839;BME280;39219;53.678;9.856;2022-12-08T11:37:52;100293.63;;;2.50;100.00
52839;BME280;39219;53.678;9.856;2022-12-08T11:40:23;100287.47;;;2.34;100.00
52839;BME280;39219;53.678;9.856;2022-12-08T11:43:04;100284.81;;;2.24;100.00
52839;BME280;39219;53.678;9.856;2022-12-08T11:45:34;100286.63;;;2.48;100.00
52839;BME280;39219;53.678;9.856;2022-12-08T11:48:11;100287.56;;;2.64;100.00
52839;BME280;39219;53.678;9.856;2022-12-08T11:50:42;100282.31;;;3.01;100.00
52839;BME280;39219;53.678;9.856;2022-12-08T11:53:16;100280.56;;;3.23;100.00
52839;BME280;39219;53.678;9.856;2022-12-08T11:55:47;100277.94;;;3.13;100.00
52839;BME280;39219;53.678;9.856;2022-12-08T11:58:19;100277.94;;;3.08;100.00
52839;BME280;39219;53.678;9.856;2022-12-08T12:00:46;100278.81;;;3.15;100.00
52839;BME280;39219;53.678;9.856;2022-12-08T12:03:21;100289.31;;;3.11;100.00
52839;BME280;39219;53.678;9.856;2022-12-08T12:06:01;100287.53;;;3.40;100.00
52839;BME280;39219;53.678;9.856;2022-12-08T12:08:40;100281.38;;;3.58;100.00
52839;BME280;39219;53.678;9.856;2022-12-08T12:11:19;100289.25;;;3.63;100.00
52839;BME280;39219;53.678;9.856;2022-12-08T12:14:17;100295.31;;;3.80;100.00
52839;BME280;39219;53.678;9.856;2022-12-08T12:16:58;100290.94;;;3.90;100.00
52839;BME280;39219;53.678;9.856;2022-12-08T12:19:27;100294.38;;;4.02;100.00
52839;BME280;39219;53.678;9.856;2022-12-08T12:21:56;100290.06;;;3.88;100.00
52839;BME280;39219;53.678;9.856;2022-12-08T12:24:24;100293.56;;;3.79;100.00
52839;BME280;39219;53.678;9.856;2022-12-08T12:26:58;100296.25;;;3.68;100.00
52839;BME280;39219;53.678;9.856;2022-12-08T12:29:28;100296.25;;;3.50;100.00
52839;BME280;39219;53.678;9.856;2022-12-08T12:31:57;100296.28;;;3.36;100.00
52839;BME280;39219;53.678;9.856;2022-12-08T12:34:27;100287.56;;;3.24;100.00
52839;BME280;39219;53.678;9.856;2022-12-08T12:36:56;100291.94;;;3.11;100.00
52839;BME280;39219;53.678;9.856;2022-12-08T12:39:26;100290.19;;;2.98;100.00
52839;BME280;39219;53.678;9.856;2022-12-08T12:41:57;100296.31;;;2.97;100.00
52839;BME280;39219;53.678;9.856;2022-12-08T12:44:38;100296.31;;;2.97;100.00
52839;BME280;39219;53.678;9.856;2022-12-08T12:47:10;100304.16;;;2.91;100.00
52839;BME280;39219;53.678;9.856;2022-12-08T12:49:51;100292.81;;;2.90;100.00
52839;BME280;39219;53.678;9.856;2022-12-08T12:52:38;100295.44;;;2.89;100.00
52839;BME280;39219;53.678;9.856;2022-12-08T13:04:08;100297.16;;;2.66;100.00
52839;BME280;39219;53.678;9.856;2022-12-08T13:06:39;100291.03;;;2.54;100.00
52839;BME280;39219;53.678;9.856;2022-12-08T13:09:18;100297.97;;;2.44;100.00
52839;BME280;39219;53.678;9.856;2022-12-08T13:11:49;100290.09;;;2.44;100.00
52839;BME280;39219;53.678;9.856;2022-12-08T13:14:31;100287.47;;;2.37;100.00